Time;durP1;ratioP1;P1;durP2;ratioP2;P2;SDS_P1;SDS_P2;PMS_P1;PMS_P2;Temp;Humidity;BMP_temperature;BMP_pressure;BME280_temperature;BME280_humidity;BME280_pressure;Samples;Min_cycle;Max_cycle;Signal;HPM_P1;HPM_P2
2022/01/10 00:00:58;;;;;;;17.65;6.85;;;3.30;99.90;;;;;;4891664;28;20052;-92
2022/01/10 00:03:26;;;;;;;19.70;7.10;;;3.40;99.90;;;;;;4928653;28;20112;-92
2022/01/10 00:05:58;;;;;;;27.13;7.75;;;3.40;99.90;;;;;;4915159;28;20069;-93
2022/01/10 00:08:24;;;;;;;20.58;7.10;;;3.30;99.90;;;;;;4893106;28;20048;-92
2022/01/10 00:10:51;;;;;;;24.75;8.13;;;3.30;99.90;;;;;;4908744;28;20171;-93
2022/01/10 00:13:17;;;;;;;21.58;7.88;;;3.30;99.90;;;;;;4908477;28;20137;-93
2022/01/10 00:15:46;;;;;;;21.52;7.38;;;3.30;99.90;;;;;;4924101;28;20524;-91
2022/01/10 00:18:18;;;;;;;25.25;8.23;;;3.30;99.90;;;;;;4910100;28;20076;-91
2022/01/10 00:20:44;;;;;;;20.25;7.97;;;3.20;99.90;;;;;;4906288;28;20145;-92
2022/01/10 00:23:10;;;;;;;22.77;7.43;;;3.20;99.90;;;;;;4894995;28;20060;-92
2022/01/10 00:25:39;;;;;;;18.08;7.57;;;3.10;99.90;;;;;;4907621;28;20045;-92
2022/01/10 00:28:08;;;;;;;22.65;8.13;;;3.10;99.90;;;;;;4894860;28;20069;-93
2022/01/10 00:30:34;;;;;;;23.98;8.02;;;3.20;99.90;;;;;;4922745;28;20061;-92
2022/01/10 00:33:05;;;;;;;24.63;7.88;;;3.10;99.90;;;;;;4902620;28;20086;-92
2022/01/10 00:35:34;;;;;;;19.48;6.32;;;3.00;99.90;;;;;;4897939;28;20085;-92
2022/01/10 00:38:07;;;;;;;18.25;6.85;;;2.70;99.90;;;;;;4925620;28;20128;-93
2022/01/10 00:40:36;;;;;;;26.95;8.02;;;2.70;99.90;;;;;;4919453;28;20509;-94
2022/01/10 00:43:05;;;;;;;23.23;7.70;;;2.80;99.90;;;;;;4906603;28;20046;-93
2022/01/10 00:45:41;;;;;;;23.58;7.80;;;2.80;99.90;;;;;;4908303;28;20378;-93
2022/01/10 00:48:15;;;;;;;21.33;7.72;;;2.80;99.90;;;;;;4906418;28;20047;-93
2022/01/10 00:50:43;;;;;;;24.70;7.80;;;2.80;99.90;;;;;;4899629;28;20057;-91
2022/01/10 00:53:09;;;;;;;22.98;8.77;;;2.80;99.90;;;;;;4890722;28;20046;-94
2022/01/10 00:55:35;;;;;;;18.95;8.20;;;2.80;99.90;;;;;;4897469;28;20611;-93
2022/01/10 00:58:01;;;;;;;19.88;7.93;;;2.90;99.90;;;;;;4897766;28;20054;-93
2022/01/10 01:00:29;;;;;;;22.42;8.38;;;2.80;99.90;;;;;;4873765;28;20138;-93
2022/01/10 01:02:58;;;;;;;22.35;8.23;;;2.80;99.90;;;;;;4895079;28;20066;-93
2022/01/10 01:05:26;;;;;;;18.20;8.05;;;2.80;99.90;;;;;;4887492;28;20049;-94
2022/01/10 01:07:52;;;;;;;21.52;8.45;;;2.70;99.90;;;;;;4905796;28;20853;-93
2022/01/10 01:13:07;;;;;;;19.75;7.43;;;2.70;99.90;;;;;;4907241;28;20871;-92
2022/01/10 01:15:45;;;;;;;18.05;7.65;;;2.80;99.90;;;;;;4906116;28;20058;-93
2022/01/10 01:18:30;;;;;;;23.30;7.70;;;2.60;99.90;;;;;;4890132;28;20047;-93
2022/01/10 01:26:39;;;;;;;22.45;7.05;;;2.30;99.90;;;;;;4894132;28;20260;-92
2022/01/10 01:29:09;;;;;;;17.20;6.90;;;2.10;99.90;;;;;;4892826;28;20780;-93
2022/01/10 01:31:41;;;;;;;23.23;7.22;;;1.90;99.90;;;;;;4914440;28;20383;-93
2022/01/10 01:34:14;;;;;;;20.15;6.78;;;1.90;99.90;;;;;;4891857;28;20077;-94
2022/01/10 01:36:45;;;;;;;19.85;6.35;;;1.70;99.90;;;;;;4891852;28;20564;-94
2022/01/10 01:39:21;;;;;;;21.40;7.80;;;1.60;99.90;;;;;;4919794;28;20042;-92
2022/01/10 01:44:57;;;;;;;21.77;8.13;;;1.60;99.90;;;;;;4922905;28;20905;-93
2022/01/10 01:47:23;;;;;;;22.02;8.40;;;1.50;99.90;;;;;;4906097;28;20129;-94
2022/01/10 01:49:51;;;;;;;19.35;8.35;;;1.40;99.90;;;;;;4878163;28;20436;-93
2022/01/10 01:52:34;;;;;;;20.80;8.82;;;1.40;99.90;;;;;;4910773;28;20563;-94
2022/01/10 01:55:04;;;;;;;25.23;9.30;;;1.30;99.90;;;;;;4896140;28;20319;-94
2022/01/10 01:57:30;;;;;;;21.95;8.85;;;1.40;99.90;;;;;;4904748;28;20476;-94
2022/01/10 01:59:56;;;;;;;25.63;9.57;;;1.30;99.90;;;;;;4897838;28;20050;-93
2022/01/10 02:02:22;;;;;;;26.63;9.38;;;1.40;99.90;;;;;;4902755;28;20431;-94
2022/01/10 02:04:48;;;;;;;19.67;8.85;;;1.50;99.90;;;;;;4894778;28;20646;-93
2022/01/10 02:07:16;;;;;;;25.63;11.00;;;1.50;99.90;;;;;;4897443;28;20317;-95
2022/01/10 02:09:47;;;;;;;26.45;9.73;;;1.40;99.90;;;;;;4912046;28;20073;-94
2022/01/10 02:12:13;;;;;;;25.30;10.77;;;1.40;99.90;;;;;;4917260;28;20050;-93
2022/01/10 02:14:46;;;;;;;23.08;11.68;;;1.40;99.90;;;;;;4880077;28;20132;-93
2022/01/10 02:17:19;;;;;;;22.25;11.50;;;1.30;99.90;;;;;;4905835;28;20766;-93
2022/01/10 02:19:59;;;;;;;26.42;12.35;;;1.40;99.90;;;;;;4896473;28;20563;-94
2022/01/10 02:22:25;;;;;;;26.67;11.48;;;1.30;99.90;;;;;;4895481;28;20046;-94
2022/01/10 02:24:54;;;;;;;27.13;11.95;;;1.20;99.90;;;;;;4896055;28;20085;-93
2022/01/10 02:27:24;;;;;;;28.35;12.52;;;1.20;99.90;;;;;;4900753;28;20372;-94
2022/01/10 02:29:51;;;;;;;30.85;12.75;;;1.30;99.90;;;;;;4910436;28;20100;-93
2022/01/10 02:32:20;;;;;;;32.45;12.38;;;1.10;99.90;;;;;;4885128;28;20183;-94
2022/01/10 02:34:53;;;;;;;30.05;12.50;;;1.00;99.90;;;;;;4906121;28;20052;-94
2022/01/10 02:37:46;;;;;;;24.98;12.57;;;1.00;99.90;;;;;;4915911;28;20062;-94
2022/01/10 02:40:23;;;;;;;30.83;12.35;;;1.00;99.90;;;;;;4908577;28;20511;-94
2022/01/10 02:42:49;;;;;;;24.63;12.48;;;1.00;99.90;;;;;;4898328;28;20834;-94
2022/01/10 02:45:16;;;;;;;31.65;12.25;;;0.90;99.90;;;;;;4896412;28;20376;-94
2022/01/10 02:47:42;;;;;;;26.85;13.18;;;0.90;99.90;;;;;;4892024;28;20082;-93
2022/01/10 02:50:12;;;;;;;25.67;13.25;;;0.90;99.90;;;;;;4895252;28;20358;-94
2022/01/10 02:52:48;;;;;;;25.85;13.02;;;0.90;99.90;;;;;;4899546;28;20054;-94
2022/01/10 02:55:25;;;;;;;29.55;14.38;;;0.90;99.90;;;;;;4910947;28;20052;-93
2022/01/10 02:57:51;;;;;;;23.23;14.20;;;0.90;99.90;;;;;;4903304;28;20077;-94
2022/01/10 03:00:20;;;;;;;26.58;14.57;;;1.00;99.90;;;;;;4892981;28;20138;-94
2022/01/10 03:02:55;;;;;;;29.50;15.15;;;1.10;99.90;;;;;;4893047;28;20101;-93
2022/01/10 03:05:24;;;;;;;28.50;14.90;;;1.10;99.90;;;;;;4897471;28;20070;-93
2022/01/10 03:07:54;;;;;;;28.35;15.52;;;1.10;99.90;;;;;;4883029;28;20492;-91
2022/01/10 03:10:25;;;;;;;29.70;15.93;;;1.10;99.90;;;;;;4890482;28;20141;-93
2022/01/10 03:12:51;;;;;;;37.17;16.15;;;1.00;99.90;;;;;;4900816;28;20511;-94
2022/01/10 03:15:20;;;;;;;29.50;15.90;;;1.00;99.90;;;;;;4894447;28;20057;-93
2022/01/10 03:17:53;;;;;;;30.33;15.60;;;1.10;99.90;;;;;;4890981;28;20050;-91
2022/01/10 03:20:39;;;;;;;31.02;17.17;;;1.00;99.90;;;;;;4922018;28;20070;-92
2022/01/10 03:23:10;;;;;;;35.00;15.30;;;1.00;99.90;;;;;;4874245;28;20479;-93
2022/01/10 03:25:39;;;;;;;32.92;16.52;;;1.10;99.90;;;;;;4912262;28;20652;-92
2022/01/10 03:28:06;;;;;;;35.75;17.38;;;1.10;99.90;;;;;;4893577;28;20401;-92
2022/01/10 03:30:34;;;;;;;33.80;16.45;;;1.00;99.90;;;;;;4871928;28;20130;-92
2022/01/10 03:33:02;;;;;;;29.35;15.73;;;1.10;99.90;;;;;;4919910;28;20053;-91
2022/01/10 03:35:28;;;;;;;32.33;16.00;;;0.90;99.90;;;;;;4905272;28;20058;-91
2022/01/10 03:37:54;;;;;;;31.52;16.08;;;0.80;99.90;;;;;;4883233;28;20046;-91
2022/01/10 03:40:20;;;;;;;29.70;16.45;;;1.00;99.90;;;;;;4899410;28;20385;-93
2022/01/10 03:42:48;;;;;;;31.30;17.30;;;0.90;99.90;;;;;;4887805;28;20380;-93
2022/01/10 03:45:14;;;;;;;34.50;16.67;;;0.90;99.90;;;;;;4913842;28;20761;-92
2022/01/10 03:47:46;;;;;;;26.63;15.48;;;0.80;99.90;;;;;;4907451;28;20925;-93
2022/01/10 03:50:21;;;;;;;30.45;15.30;;;0.70;99.90;;;;;;4887896;28;20046;-92
2022/01/10 03:52:47;;;;;;;30.42;15.45;;;0.70;99.90;;;;;;4905199;28;20146;-92
2022/01/10 03:55:13;;;;;;;25.38;15.20;;;0.50;99.90;;;;;;4903343;28;20124;-92
2022/01/10 03:57:39;;;;;;;30.67;16.25;;;0.60;99.90;;;;;;4917697;28;20555;-91
2022/01/10 04:00:09;;;;;;;34.97;16.38;;;0.60;99.90;;;;;;4880478;28;20062;-91
2022/01/10 04:02:37;;;;;;;36.53;17.35;;;0.60;99.90;;;;;;4873955;28;20046;-91
2022/01/10 04:05:07;;;;;;;32.10;17.45;;;0.60;99.90;;;;;;4909498;28;20057;-91
2022/01/10 04:07:33;;;;;;;33.95;17.27;;;0.70;99.90;;;;;;4898100;28;20046;-94
2022/01/10 04:10:10;;;;;;;33.60;18.08;;;0.80;99.90;;;;;;4883418;28;20509;-92
2022/01/10 04:12:36;;;;;;;32.45;18.10;;;0.90;99.90;;;;;;4902123;28;20064;-92
2022/01/10 04:15:05;;;;;;;39.50;20.67;;;0.90;99.90;;;;;;4881119;28;20050;-92
2022/01/10 04:17:31;;;;;;;31.58;18.67;;;0.90;99.90;;;;;;4891160;28;20618;-91
2022/01/10 04:19:57;;;;;;;32.30;19.48;;;0.90;99.90;;;;;;4886849;28;20090;-92
2022/01/10 04:22:23;;;;;;;36.85;21.05;;;0.80;99.90;;;;;;4893073;28;20811;-92
2022/01/10 04:24:52;;;;;;;36.28;18.27;;;0.90;99.90;;;;;;4906211;28;20092;-91
2022/01/10 04:27:18;;;;;;;28.55;16.55;;;0.80;99.90;;;;;;4878264;28;20230;-92
2022/01/10 04:29:47;;;;;;;33.35;17.83;;;0.70;99.90;;;;;;4886038;28;20136;-92
2022/01/10 04:32:12;;;;;;;38.00;19.63;;;0.70;99.90;;;;;;4896747;28;20144;-91
2022/01/10 04:34:39;;;;;;;30.02;18.08;;;0.70;99.90;;;;;;4870339;28;20584;-92
2022/01/10 04:37:08;;;;;;;27.73;18.35;;;0.80;99.90;;;;;;4885874;28;20558;-90
2022/01/10 04:39:44;;;;;;;27.02;17.90;;;0.80;99.90;;;;;;4886217;28;20520;-93
2022/01/10 04:42:13;;;;;;;28.38;16.75;;;0.80;99.90;;;;;;4888939;28;20458;-92
2022/01/10 04:44:40;;;;;;;29.20;17.98;;;0.80;99.90;;;;;;4905967;28;20851;-92
2022/01/10 04:47:05;;;;;;;32.45;19.67;;;0.70;99.90;;;;;;4896430;28;20050;-92
2022/01/10 04:49:44;;;;;;;29.88;19.45;;;0.80;99.90;;;;;;4891437;28;20789;-90
2022/01/10 04:52:10;;;;;;;129.63;20.00;;;0.80;99.90;;;;;;4870375;28;20043;-90
2022/01/10 04:54:39;;;;;;;31.58;17.88;;;0.70;99.90;;;;;;4879341;28;20088;-90
2022/01/10 04:57:05;;;;;;;38.40;20.02;;;0.70;99.90;;;;;;4899804;28;20650;-92
2022/01/10 04:59:34;;;;;;;28.00;19.48;;;0.70;99.90;;;;;;4889790;28;20080;-92
2022/01/10 05:02:02;;;;;;;45.58;23.75;;;0.70;99.90;;;;;;4888824;28;20058;-93
2022/01/10 05:04:28;;;;;;;32.58;19.88;;;0.80;99.90;;;;;;4886016;28;20104;-93
2022/01/10 05:06:54;;;;;;;35.00;20.95;;;0.90;99.90;;;;;;4873053;28;20459;-93
2022/01/10 05:09:20;;;;;;;200.15;22.95;;;0.80;99.90;;;;;;4887328;28;20046;-92
2022/01/10 05:11:46;;;;;;;48.65;21.42;;;0.70;99.90;;;;;;4878660;28;20046;-92
2022/01/10 05:14:12;;;;;;;42.45;22.20;;;0.50;99.90;;;;;;4893770;28;20137;-92
2022/01/10 05:16:41;;;;;;;46.42;25.23;;;0.40;99.90;;;;;;4890000;28;20943;-92
2022/01/10 05:19:08;;;;;;;39.53;22.17;;;0.40;99.90;;;;;;4892461;28;20082;-93
2022/01/10 05:21:37;;;;;;;33.22;20.23;;;0.30;99.90;;;;;;4907430;28;20050;-92
2022/01/10 05:24:07;;;;;;;39.15;20.20;;;0.30;99.90;;;;;;4902323;28;20903;-92
2022/01/10 05:26:33;;;;;;;32.42;20.80;;;0.20;99.90;;;;;;4894430;28;20480;-92
2022/01/10 05:29:02;;;;;;;36.15;20.88;;;0.30;99.90;;;;;;4880913;28;20422;-93
2022/01/10 05:31:30;;;;;;;39.97;21.27;;;0.40;99.90;;;;;;4896699;28;20042;-93
2022/01/10 05:33:56;;;;;;;35.63;19.98;;;0.40;99.90;;;;;;4909755;28;20054;-92
2022/01/10 05:36:30;;;;;;;42.90;21.42;;;0.30;99.90;;;;;;4892985;28;20048;-93
2022/01/10 05:39:06;;;;;;;122.03;22.75;;;0.30;99.90;;;;;;4879605;28;20147;-92
2022/01/10 05:41:36;;;;;;;41.55;21.95;;;0.30;99.90;;;;;;4883215;28;20058;-93
2022/01/10 05:44:05;;;;;;;32.67;19.75;;;0.30;99.90;;;;;;4890667;28;20050;-92
2022/01/10 05:46:47;;;;;;;56.40;25.83;;;0.40;99.90;;;;;;4887857;28;20049;-92
2022/01/10 05:49:14;;;;;;;50.63;25.88;;;0.50;99.90;;;;;;4890832;28;20954;-93
2022/01/10 05:51:40;;;;;;;39.28;23.40;;;0.50;99.90;;;;;;4913841;28;20112;-92
2022/01/10 05:54:09;;;;;;;47.70;24.55;;;0.50;99.90;;;;;;4891194;28;20344;-93
2022/01/10 05:56:35;;;;;;;38.72;22.85;;;0.40;99.90;;;;;;4903690;28;20054;-93
2022/01/10 05:59:01;;;;;;;38.72;22.73;;;0.20;99.90;;;;;;4900263;28;20046;-92
2022/01/10 06:01:27;;;;;;;38.83;23.67;;;0.30;99.90;;;;;;4889931;28;20725;-92
2022/01/10 06:03:56;;;;;;;34.97;21.70;;;0.30;99.90;;;;;;4906628;28;20038;-92
2022/01/10 06:06:30;;;;;;;43.50;24.52;;;0.50;99.90;;;;;;4886232;28;20042;-93
2022/01/10 06:09:06;;;;;;;44.58;26.83;;;0.50;99.90;;;;;;4902346;28;20061;-93
2022/01/10 06:11:34;;;;;;;73.15;29.95;;;0.60;99.90;;;;;;4907002;28;20046;-93
2022/01/10 06:14:00;;;;;;;59.10;28.52;;;0.80;99.90;;;;;;4904655;28;20072;-92
2022/01/10 06:16:29;;;;;;;51.83;29.20;;;0.60;99.90;;;;;;4900641;28;20745;-92
2022/01/10 06:18:55;;;;;;;41.22;24.83;;;0.70;99.90;;;;;;4895137;28;20821;-92
2022/01/10 06:21:23;;;;;;;43.60;25.45;;;0.70;99.90;;;;;;4893542;28;20555;-92
2022/01/10 06:23:55;;;;;;;48.40;28.85;;;0.70;99.90;;;;;;4909908;28;20097;-93
2022/01/10 06:26:23;;;;;;;48.33;28.30;;;0.70;99.90;;;;;;4908190;28;20038;-93
2022/01/10 06:28:52;;;;;;;43.20;24.83;;;0.70;99.90;;;;;;4893732;28;20149;-92
2022/01/10 06:31:18;;;;;;;36.83;23.30;;;0.70;99.90;;;;;;4898829;28;20047;-92
2022/01/10 06:33:47;;;;;;;31.02;20.73;;;0.60;99.90;;;;;;4909493;28;20104;-92
2022/01/10 06:36:16;;;;;;;32.80;20.13;;;0.50;99.90;;;;;;4906701;28;20070;-93
2022/01/10 06:38:41;;;;;;;39.28;22.95;;;0.30;99.90;;;;;;4907635;28;20233;-92
2022/01/10 06:41:10;;;;;;;39.55;22.13;;;0.20;99.90;;;;;;4904873;28;20320;-92
2022/01/10 06:43:37;;;;;;;30.02;21.63;;;0.10;99.90;;;;;;4910529;28;20433;-92
2022/01/10 06:46:06;;;;;;;38.47;21.05;;;0.20;99.90;;;;;;4900694;28;20741;-93
2022/01/10 06:48:33;;;;;;;27.17;20.40;;;0.20;99.90;;;;;;4910822;28;20708;-91
2022/01/10 06:50:59;;;;;;;33.65;20.75;;;0.30;99.90;;;;;;4892399;28;20054;-91
2022/01/10 06:53:25;;;;;;;28.17;20.42;;;0.40;99.90;;;;;;4909886;28;20100;-92
2022/01/10 06:55:54;;;;;;;33.53;23.50;;;0.30;99.90;;;;;;4897986;28;20159;-91
2022/01/10 06:58:23;;;;;;;50.20;26.02;;;0.50;99.90;;;;;;4875726;28;20078;-92
2022/01/10 07:00:57;;;;;;;49.70;25.88;;;0.60;99.90;;;;;;4876324;28;20072;-93
2022/01/10 07:03:23;;;;;;;39.58;24.77;;;0.30;99.90;;;;;;4896788;28;20133;-93
2022/01/10 07:05:48;;;;;;;49.17;24.95;;;0.40;99.90;;;;;;4907179;28;20049;-92
2022/01/10 07:08:14;;;;;;;120.05;27.05;;;0.30;99.90;;;;;;4900908;28;20390;-93
2022/01/10 07:10:40;;;;;;;87.75;22.80;;;0.40;99.90;;;;;;4889948;28;20466;-92
2022/01/10 07:13:09;;;;;;;170.40;29.23;;;0.10;99.90;;;;;;4891423;28;20042;-92
2022/01/10 07:15:35;;;;;;;295.95;32.47;;;0.20;99.90;;;;;;4897090;28;20046;-92
2022/01/10 07:18:03;;;;;;;147.98;29.83;;;0.20;99.90;;;;;;4891761;28;21059;-92
2022/01/10 07:20:31;;;;;;;126.78;30.98;;;0.10;99.90;;;;;;4908561;28;20078;-90
2022/01/10 07:22:58;;;;;;;65.72;28.48;;;0.10;99.90;;;;;;4865515;28;20579;-89
2022/01/10 07:25:26;;;;;;;69.63;30.73;;;0.00;99.90;;;;;;4869048;28;20070;-87
2022/01/10 07:27:52;;;;;;;48.97;26.23;;;0.10;99.90;;;;;;4873477;28;20058;-92
2022/01/10 07:30:18;;;;;;;49.60;25.73;;;0.20;99.90;;;;;;4867468;28;20042;-91
2022/01/10 07:32:44;;;;;;;47.08;24.58;;;0.10;99.90;;;;;;4888867;28;20117;-90
2022/01/10 07:35:21;;;;;;;45.40;24.88;;;0.20;99.90;;;;;;4873914;28;20128;-91
2022/01/10 07:37:52;;;;;;;73.40;29.83;;;0.20;99.90;;;;;;4863585;28;20653;-93
2022/01/10 07:40:18;;;;;;;42.95;23.77;;;0.10;99.90;;;;;;4886807;28;20046;-93
2022/01/10 07:42:44;;;;;;;54.25;25.67;;;0.00;99.90;;;;;;4891488;28;20932;-92
2022/01/10 07:45:10;;;;;;;205.90;33.28;;;0.00;99.90;;;;;;4890891;28;20077;-89
2022/01/10 07:47:42;;;;;;;72.53;35.35;;;0.00;99.90;;;;;;4911866;28;20057;-93
2022/01/10 07:50:11;;;;;;;75.95;35.67;;;0.20;99.90;;;;;;4923009;28;20575;-91
2022/01/10 07:52:37;;;;;;;75.88;36.40;;;0.20;99.90;;;;;;4881674;28;20385;-90
2022/01/10 07:55:05;;;;;;;79.57;36.03;;;0.60;99.90;;;;;;4881402;28;20046;-94
2022/01/10 07:57:33;;;;;;;88.50;36.72;;;0.40;99.90;;;;;;4914615;28;20130;-90
2022/01/10 08:00:05;;;;;;;58.35;33.58;;;0.40;99.90;;;;;;4887346;28;20538;-90
2022/01/10 08:02:33;;;;;;;90.45;38.38;;;0.30;99.90;;;;;;4901504;28;20531;-94
2022/01/10 08:05:08;;;;;;;85.72;40.63;;;0.40;99.90;;;;;;4891157;28;20202;-91
2022/01/10 08:07:34;;;;;;;56.95;34.47;;;0.50;99.90;;;;;;4896474;28;20069;-92
2022/01/10 08:10:01;;;;;;;52.88;30.92;;;0.50;99.90;;;;;;4893269;28;20412;-91
2022/01/10 08:12:37;;;;;;;52.40;29.80;;;0.40;99.90;;;;;;4887930;28;20465;-92
2022/01/10 08:15:03;;;;;;;55.63;32.30;;;0.30;99.90;;;;;;4896246;28;20065;-90
2022/01/10 08:17:29;;;;;;;53.92;30.90;;;0.30;99.90;;;;;;4905488;28;20488;-91
2022/01/10 08:19:55;;;;;;;56.85;30.63;;;0.30;99.90;;;;;;4890155;28;20220;-90
2022/01/10 08:22:23;;;;;;;71.88;35.58;;;0.20;99.90;;;;;;4876261;28;20424;-91
2022/01/10 08:24:57;;;;;;;90.47;31.42;;;0.20;99.90;;;;;;4893870;28;20138;-91
2022/01/10 08:27:26;;;;;;;59.97;31.50;;;0.20;99.90;;;;;;4888947;28;20851;-91
2022/01/10 08:30:12;;;;;;;52.55;29.98;;;0.30;99.90;;;;;;4875790;28;20050;-91
2022/01/10 08:32:38;;;;;;;61.60;30.65;;;0.20;99.90;;;;;;4904469;28;20050;-88
2022/01/10 08:35:10;;;;;;;48.50;27.85;;;0.20;99.90;;;;;;4899536;28;20248;-90
2022/01/10 08:37:36;;;;;;;56.00;35.97;;;0.20;99.90;;;;;;4892687;28;20271;-92
2022/01/10 08:40:08;;;;;;;55.72;33.78;;;0.30;99.90;;;;;;4893939;28;20093;-91
2022/01/10 08:42:33;;;;;;;64.40;36.38;;;0.50;99.90;;;;;;4898618;28;20050;-91
2022/01/10 08:44:59;;;;;;;65.90;36.22;;;0.50;99.90;;;;;;4911583;28;20463;-94
2022/01/10 08:47:27;;;;;;;69.85;37.88;;;0.60;99.90;;;;;;4890237;28;20910;-91
2022/01/10 08:49:53;;;;;;;49.30;32.50;;;0.50;99.90;;;;;;4884386;28;20391;-92
2022/01/10 08:52:19;;;;;;;49.65;31.75;;;0.60;99.90;;;;;;4888052;28;20931;-89
2022/01/10 08:54:49;;;;;;;47.17;30.17;;;0.60;99.90;;;;;;4902885;28;20050;-95
2022/01/10 08:57:16;;;;;;;57.33;29.98;;;0.50;99.90;;;;;;4910660;28;20395;-92
2022/01/10 08:59:45;;;;;;;58.35;33.90;;;0.50;99.90;;;;;;4887102;28;20547;-92
2022/01/10 09:02:12;;;;;;;60.00;33.28;;;0.50;99.90;;;;;;4894691;28;20054;-93
2022/01/10 09:04:40;;;;;;;79.63;38.50;;;0.60;99.90;;;;;;4893621;28;20565;-93
2022/01/10 09:07:08;;;;;;;101.55;37.90;;;0.60;99.90;;;;;;4895230;28;20393;-92
2022/01/10 09:09:40;;;;;;;55.95;32.28;;;0.70;99.90;;;;;;4896937;28;20568;-92
2022/01/10 09:12:10;;;;;;;70.55;35.75;;;0.60;99.90;;;;;;4942856;28;20046;-95
2022/01/10 09:14:39;;;;;;;71.28;37.78;;;0.80;99.90;;;;;;4911275;28;20058;-94
2022/01/10 09:17:08;;;;;;;62.20;36.35;;;1.00;99.90;;;;;;4915355;28;20069;-94
2022/01/10 09:19:34;;;;;;;53.80;35.10;;;1.20;99.90;;;;;;4898366;28;20092;-92
2022/01/10 09:22:00;;;;;;;52.58;34.80;;;1.30;99.90;;;;;;4886109;28;20905;-95
2022/01/10 09:24:29;;;;;;;51.75;33.33;;;1.40;99.90;;;;;;4911874;28;20983;-93
2022/01/10 09:27:01;;;;;;;52.30;33.85;;;1.50;99.90;;;;;;4915350;28;20957;-95
2022/01/10 09:29:27;;;;;;;48.53;31.92;;;1.60;99.90;;;;;;4882845;28;20050;-93
2022/01/10 09:31:53;;;;;;;48.08;31.17;;;1.60;99.90;;;;;;4896434;28;20367;-93
2022/01/10 09:34:23;;;;;;;43.38;30.35;;;1.80;99.90;;;;;;4906271;28;20129;-94
2022/01/10 09:36:58;;;;;;;41.97;31.23;;;1.80;99.90;;;;;;4899987;28;20043;-93
2022/01/10 09:39:24;;;;;;;47.95;32.60;;;1.90;99.90;;;;;;4914143;28;20501;-94
2022/01/10 09:41:53;;;;;;;44.10;31.13;;;2.00;99.90;;;;;;4911029;28;20519;-95
2022/01/10 09:44:25;;;;;;;46.25;30.90;;;2.10;99.90;;;;;;4918735;28;20042;-93
2022/01/10 09:47:17;;;;;;;43.75;31.00;;;2.20;99.90;;;;;;4898067;28;20164;-95
2022/01/10 09:49:43;;;;;;;43.83;31.25;;;2.30;99.90;;;;;;4912312;28;20101;-94
2022/01/10 09:52:15;;;;;;;39.13;30.13;;;2.40;99.90;;;;;;4896284;28;20422;-93
2022/01/10 09:54:43;;;;;;;44.72;31.70;;;2.50;99.90;;;;;;4908686;28;20245;-92
2022/01/10 09:57:17;;;;;;;43.45;31.40;;;2.60;99.90;;;;;;4885356;28;20181;-96
2022/01/10 09:59:43;;;;;;;;;;;2.60;99.90;;;;;;4898948;28;20061;-92
2022/01/10 10:02:21;;;;;;;38.92;28.75;;;2.70;99.90;;;;;;4908516;28;20130;-94
2022/01/10 10:04:50;;;;;;;42.92;30.50;;;2.80;99.90;;;;;;4910444;28;20198;-95
2022/01/10 10:07:16;;;;;;;42.53;31.13;;;2.80;99.90;;;;;;4933262;28;20495;-91
2022/01/10 10:09:42;;;;;;;44.20;29.35;;;2.90;99.90;;;;;;4907418;28;20220;-90
2022/01/10 10:12:11;;;;;;;36.80;28.83;;;2.90;99.90;;;;;;4905877;28;20199;-93
2022/01/10 10:14:38;;;;;;;35.42;28.20;;;2.90;99.90;;;;;;4904841;28;20050;-87
2022/01/10 10:17:12;;;;;;;36.88;28.83;;;3.00;99.90;;;;;;4907105;28;20054;-87
2022/01/10 10:19:41;;;;;;;36.83;29.17;;;3.00;99.90;;;;;;4909737;28;20664;-94
2022/01/10 10:22:18;;;;;;;39.42;29.55;;;3.10;99.90;;;;;;4898666;28;20502;-92
2022/01/10 10:24:48;;;;;;;37.40;28.17;;;3.20;99.90;;;;;;4898136;28;20050;-91
2022/01/10 10:27:17;;;;;;;37.00;28.10;;;3.30;99.90;;;;;;4923046;28;20574;-93
2022/01/10 10:29:44;;;;;;;39.22;28.00;;;3.40;99.90;;;;;;4907294;28;20144;-93
2022/01/10 10:32:18;;;;;;;36.72;27.52;;;3.40;99.90;;;;;;4893691;28;20046;-92
2022/01/10 10:34:44;;;;;;;37.90;27.58;;;3.50;99.90;;;;;;4911578;28;20046;-90
2022/01/10 10:37:12;;;;;;;32.17;25.98;;;3.50;99.90;;;;;;4911646;28;20457;-89
2022/01/10 10:39:41;;;;;;;36.17;26.08;;;3.40;99.90;;;;;;4896442;28;20108;-90
2022/01/10 10:42:12;;;;;;;35.03;26.52;;;3.50;99.90;;;;;;4895466;28;20050;-90
2022/01/10 10:44:38;;;;;;;33.17;27.40;;;3.60;99.90;;;;;;4903869;28;20435;-92
2022/01/10 10:47:05;;;;;;;36.42;26.58;;;3.60;99.90;;;;;;4893061;28;20212;-90
2022/01/10 10:49:38;;;;;;;32.20;26.42;;;3.60;99.90;;;;;;4907977;28;20050;-90
2022/01/10 10:52:10;;;;;;;30.52;25.83;;;3.60;99.90;;;;;;4909266;28;20534;-91
2022/01/10 10:54:38;;;;;;;38.85;26.25;;;3.70;99.90;;;;;;4908465;28;20058;-90
2022/01/10 10:57:06;;;;;;;33.13;27.10;;;3.70;99.90;;;;;;4889330;28;20042;-89
2022/01/10 10:59:39;;;;;;;33.83;27.13;;;3.80;99.90;;;;;;4872577;28;20046;-89
2022/01/10 11:02:05;;;;;;;34.25;25.33;;;3.80;99.90;;;;;;4898354;28;20086;-88
2022/01/10 11:04:34;;;;;;;35.95;26.05;;;3.80;99.90;;;;;;4899573;28;20759;-90
2022/01/10 11:07:03;;;;;;;36.00;27.75;;;3.80;99.90;;;;;;4901007;28;20089;-91
2022/01/10 11:09:30;;;;;;;34.00;27.05;;;3.90;99.90;;;;;;4898314;28;20043;-88
2022/01/10 11:12:37;;;;;;;33.67;27.55;;;3.90;99.90;;;;;;4894732;28;20365;-88
2022/01/10 11:15:04;;;;;;;34.78;28.05;;;4.10;99.90;;;;;;4909497;28;20589;-89
2022/01/10 11:17:30;;;;;;;36.33;27.80;;;4.10;99.90;;;;;;4877926;28;20157;-91
2022/01/10 11:20:30;;;;;;;36.60;28.48;;;4.20;99.90;;;;;;4908146;28;20069;-91
2022/01/10 11:23:01;;;;;;;39.03;29.33;;;4.20;99.90;;;;;;4914044;28;20215;-93
2022/01/10 11:25:32;;;;;;;38.72;28.60;;;4.40;99.90;;;;;;4895299;28;20057;-90
2022/01/10 11:28:05;;;;;;;36.25;28.42;;;4.40;99.90;;;;;;4913540;28;20058;-89
2022/01/10 11:30:32;;;;;;;33.67;27.33;;;4.50;99.90;;;;;;4902671;28;20157;-87
2022/01/10 11:33:22;;;;;;;37.92;26.90;;;4.60;99.90;;;;;;4892073;28;20046;-87
2022/01/10 11:35:56;;;;;;;37.75;27.42;;;4.70;99.90;;;;;;4881900;28;20042;-89
2022/01/10 11:38:24;;;;;;;34.55;26.30;;;4.80;99.90;;;;;;4900633;28;20046;-92
2022/01/10 11:41:18;;;;;;;33.78;25.98;;;4.90;99.90;;;;;;4894406;28;20050;-94
2022/01/10 11:43:56;;;;;;;30.80;25.88;;;4.90;99.90;;;;;;4885646;28;21132;-89
2022/01/10 11:46:47;;;;;;;33.53;25.58;;;4.90;99.90;;;;;;4899640;28;20834;-89
2022/01/10 11:49:13;;;;;;;32.92;26.00;;;5.10;99.90;;;;;;4890513;28;20061;-92
2022/01/10 11:51:46;;;;;;;35.13;25.05;;;5.20;99.90;;;;;;4885079;28;20085;-89
2022/01/10 11:54:14;;;;;;;32.55;24.38;;;5.20;99.90;;;;;;4918339;28;20081;-89
2022/01/10 11:56:47;;;;;;;36.03;23.20;;;5.30;99.90;;;;;;4897692;28;20053;-90
2022/01/10 11:59:53;;;;;;;31.80;23.10;;;5.30;99.90;;;;;;4904564;28;20515;-90
2022/01/10 12:02:23;;;;;;;31.15;21.58;;;5.30;99.90;;;;;;4924708;28;20349;-92
2022/01/10 12:05:01;;;;;;;29.88;22.50;;;5.30;99.90;;;;;;4907259;28;20149;-92
2022/01/10 12:07:28;;;;;;;29.05;22.67;;;5.30;99.90;;;;;;4893992;28;21650;-91
2022/01/10 12:10:00;;;;;;;31.75;22.92;;;5.40;99.90;;;;;;4927326;28;20125;-95
2022/01/10 12:12:30;;;;;;;27.65;21.95;;;5.50;99.90;;;;;;4894777;28;20144;-89
2022/01/10 12:14:56;;;;;;;26.67;20.55;;;5.40;99.90;;;;;;4909276;28;20066;-91
2022/01/10 12:17:22;;;;;;;31.35;21.15;;;5.50;99.90;;;;;;4895235;28;20140;-92
2022/01/10 12:19:48;;;;;;;30.63;20.77;;;5.40;99.90;;;;;;4898431;28;20476;-90
2022/01/10 12:22:14;;;;;;;31.38;21.45;;;5.40;99.90;;;;;;4893756;28;20557;-91
2022/01/10 12:24:42;;;;;;;33.60;21.90;;;5.50;99.90;;;;;;4898013;28;20408;-88
2022/01/10 12:27:12;;;;;;;29.10;21.73;;;5.60;99.90;;;;;;4898490;28;20046;-90
2022/01/10 12:29:40;;;;;;;29.23;21.80;;;5.60;99.90;;;;;;4898816;28;20857;-91
2022/01/10 12:32:07;;;;;;;29.52;21.52;;;5.60;99.90;;;;;;4874093;28;20042;-89
2022/01/10 12:34:33;;;;;;;29.00;21.38;;;5.50;99.90;;;;;;4875104;28;20053;-93
2022/01/10 12:36:59;;;;;;;27.92;22.20;;;5.50;99.90;;;;;;4880589;28;20397;-90
2022/01/10 12:39:27;;;;;;;26.45;21.85;;;5.50;99.90;;;;;;4853530;28;20050;-90
2022/01/10 12:42:08;;;;;;;26.85;21.95;;;5.50;99.90;;;;;;4872198;28;20541;-94
2022/01/10 12:44:34;;;;;;;26.48;21.38;;;5.50;99.90;;;;;;4893739;28;20050;-87
2022/01/10 12:47:03;;;;;;;27.35;22.00;;;5.50;99.90;;;;;;4882449;28;20476;-89
2022/01/10 12:49:31;;;;;;;27.00;21.98;;;5.60;99.90;;;;;;4897065;28;20696;-89
2022/01/10 12:51:58;;;;;;;27.25;22.23;;;5.60;99.90;;;;;;4866318;28;20054;-88
2022/01/10 12:54:27;;;;;;;28.20;21.17;;;5.80;99.90;;;;;;4898006;28;20097;-87
2022/01/10 12:56:54;;;;;;;28.63;21.60;;;5.60;99.90;;;;;;4879959;28;20507;-88
2022/01/10 12:59:24;;;;;;;29.50;22.83;;;5.60;99.90;;;;;;4877807;28;20579;-87
2022/01/10 13:01:52;;;;;;;30.85;22.13;;;5.80;99.90;;;;;;4879657;28;20473;-87